METAR Torp

ENTO 212350Z AUTO 03005KT 9999 OVC010/// M00/M01 Q1033

METAR Gardermoen

ENGM 212350Z 13004KT 6000 FEW007 OVC010 M02/M04 Q1033

Webcam Kjeller